CA-0461 weather

Brougham (High Perspective Hang Glider Port)
Ontario, Canada

Public forecast

Using degrees Celsius for public forecast. Weather courtesy of forecast.io.

Closest aviation weather report (METAR) to Brougham (High Perspective Hang Glider Port)

Closest report is Toronto/Oshawa Executive Airport, 10.3 nm (19.2 km) E. Retrieved 2020/06/04 01:00 UTC (28 minutes ago):

CYOO 040100Z AUTO 32007KT 9SM CLR 21/13 A2967 RMK SLP049 DENSITY ALT 1500FT

Closest aviation forecast (TAF) to Brougham (High Perspective Hang Glider Port)

Closest forecast is Toronto/Oshawa Executive Airport, 10.3 nm (19.2 km) E. Retrieved 2020/06/03 20:00 UTC (5 hours ago):

TAF CYOO 031938Z 0320/0408 29010G20KT P6SM SCT050 TEMPO 0320/0324 P6SM -SHRA BKN050 FM040000 32008KT P6SM FEW060 BECMG 0406/0408 VRB03KT RMK FCST BASED ON AUTO OBS NXT FCST BY 040200Z